sensor_id;sensor_type;location;lat;lon;timestamp;temperature;humidity
17529;DHT22;8882;53.192;8.184;2023-09-18T00:02:26;18.90;99.90
17529;DHT22;8882;53.192;8.184;2023-09-18T00:04:54;18.90;99.90
17529;DHT22;8882;53.192;8.184;2023-09-18T00:07:20;18.90;99.90
17529;DHT22;8882;53.192;8.184;2023-09-18T00:09:45;18.90;99.90
17529;DHT22;8882;53.192;8.184;2023-09-18T00:12:11;18.90;99.90
17529;DHT22;8882;53.192;8.184;2023-09-18T00:14:37;18.80;99.90
17529;DHT22;8882;53.192;8.184;2023-09-18T00:17:03;18.90;99.90
17529;DHT22;8882;53.192;8.184;2023-09-18T00:19:29;18.90;99.90
17529;DHT22;8882;53.192;8.184;2023-09-18T00:21:55;18.80;99.90
17529;DHT22;8882;53.192;8.184;2023-09-18T00:24:21;18.80;99.90
17529;DHT22;8882;53.192;8.184;2023-09-18T00:26:48;18.80;99.90
17529;DHT22;8882;53.192;8.184;2023-09-18T00:29:14;18.80;99.90
17529;DHT22;8882;53.192;8.184;2023-09-18T00:31:39;18.80;99.90
17529;DHT22;8882;53.192;8.184;2023-09-18T00:34:05;18.80;99.90
17529;DHT22;8882;53.192;8.184;2023-09-18T00:36:31;18.70;99.90
17529;DHT22;8882;53.192;8.184;2023-09-18T00:38:58;18.80;99.90
17529;DHT22;8882;53.192;8.184;2023-09-18T00:41:24;18.80;99.90
17529;DHT22;8882;53.192;8.184;2023-09-18T00:43:49;18.80;99.90
17529;DHT22;8882;53.192;8.184;2023-09-18T00:46:15;18.80;99.90
17529;DHT22;8882;53.192;8.184;2023-09-18T00:48:40;18.70;99.90
17529;DHT22;8882;53.192;8.184;2023-09-18T00:51:08;18.70;99.90
17529;DHT22;8882;53.192;8.184;2023-09-18T00:53:34;18.80;99.90
17529;DHT22;8882;53.192;8.184;2023-09-18T00:56:00;18.80;99.90
17529;DHT22;8882;53.192;8.184;2023-09-18T00:58:29;18.80;99.90
17529;DHT22;8882;53.192;8.184;2023-09-18T01:00:55;18.80;99.90
17529;DHT22;8882;53.192;8.184;2023-09-18T01:03:21;18.80;99.90
17529;DHT22;8882;53.192;8.184;2023-09-18T01:05:47;18.80;99.90
17529;DHT22;8882;53.192;8.184;2023-09-18T01:08:14;18.80;99.90
17529;DHT22;8882;53.192;8.184;2023-09-18T01:11:05;18.80;99.90
17529;DHT22;8882;53.192;8.184;2023-09-18T01:13:37;18.70;99.90
17529;DHT22;8882;53.192;8.184;2023-09-18T01:16:15;18.80;99.90
17529;DHT22;8882;53.192;8.184;2023-09-18T01:18:50;18.80;99.90
17529;DHT22;8882;53.192;8.184;2023-09-18T01:21:16;18.80;99.90
17529;DHT22;8882;53.192;8.184;2023-09-18T01:23:43;18.80;99.90
17529;DHT22;8882;53.192;8.184;2023-09-18T01:26:08;18.80;99.90
17529;DHT22;8882;53.192;8.184;2023-09-18T01:28:35;18.80;99.90
17529;DHT22;8882;53.192;8.184;2023-09-18T01:31:01;18.80;99.90
17529;DHT22;8882;53.192;8.184;2023-09-18T01:33:27;18.80;99.90
17529;DHT22;8882;53.192;8.184;2023-09-18T01:35:54;18.80;99.90
17529;DHT22;8882;53.192;8.184;2023-09-18T01:38:22;18.80;99.90
17529;DHT22;8882;53.192;8.184;2023-09-18T01:40:48;18.80;99.90
17529;DHT22;8882;53.192;8.184;2023-09-18T01:43:13;18.80;99.90
17529;DHT22;8882;53.192;8.184;2023-09-18T01:45:40;18.80;99.90
17529;DHT22;8882;53.192;8.184;2023-09-18T01:48:07;18.80;99.90
17529;DHT22;8882;53.192;8.184;2023-09-18T01:50:33;18.70;99.90
17529;DHT22;8882;53.192;8.184;2023-09-18T01:52:59;18.70;99.90
17529;DHT22;8882;53.192;8.184;2023-09-18T01:55:26;18.70;99.90
17529;DHT22;8882;53.192;8.184;2023-09-18T01:57:51;18.70;99.90
17529;DHT22;8882;53.192;8.184;2023-09-18T02:00:17;18.60;99.90
17529;DHT22;8882;53.192;8.184;2023-09-18T02:02:43;18.60;99.90
17529;DHT22;8882;53.192;8.184;2023-09-18T02:05:09;18.60;99.90
17529;DHT22;8882;53.192;8.184;2023-09-18T02:07:34;18.60;99.90
17529;DHT22;8882;53.192;8.184;2023-09-18T02:10:01;18.60;99.90
17529;DHT22;8882;53.192;8.184;2023-09-18T02:12:26;18.60;99.90
17529;DHT22;8882;53.192;8.184;2023-09-18T02:14:52;18.60;99.90
17529;DHT22;8882;53.192;8.184;2023-09-18T02:17:17;18.60;99.90
17529;DHT22;8882;53.192;8.184;2023-09-18T02:19:43;18.60;99.90
17529;DHT22;8882;53.192;8.184;2023-09-18T02:22:10;18.60;99.90
17529;DHT22;8882;53.192;8.184;2023-09-18T02:24:35;18.60;99.90
17529;DHT22;8882;53.192;8.184;2023-09-18T02:27:04;18.60;99.90
17529;DHT22;8882;53.192;8.184;2023-09-18T02:29:31;18.60;99.90
17529;DHT22;8882;53.192;8.184;2023-09-18T02:31:57;18.60;99.90
17529;DHT22;8882;53.192;8.184;2023-09-18T02:34:23;18.60;99.90
17529;DHT22;8882;53.192;8.184;2023-09-18T02:36:49;18.60;99.90
17529;DHT22;8882;53.192;8.184;2023-09-18T02:39:16;18.60;99.90
17529;DHT22;8882;53.192;8.184;2023-09-18T02:41:41;18.60;99.90
17529;DHT22;8882;53.192;8.184;2023-09-18T02:44:07;18.50;99.90
17529;DHT22;8882;53.192;8.184;2023-09-18T02:46:32;18.60;99.90
17529;DHT22;8882;53.192;8.184;2023-09-18T02:48:58;18.60;99.90
17529;DHT22;8882;53.192;8.184;2023-09-18T02:51:24;18.50;99.90
17529;DHT22;8882;53.192;8.184;2023-09-18T02:53:49;18.50;99.90
17529;DHT22;8882;53.192;8.184;2023-09-18T02:56:15;18.50;99.90
17529;DHT22;8882;53.192;8.184;2023-09-18T02:58:40;18.50;99.90
17529;DHT22;8882;53.192;8.184;2023-09-18T03:01:08;18.50;99.90
17529;DHT22;8882;53.192;8.184;2023-09-18T03:03:33;18.50;99.90
17529;DHT22;8882;53.192;8.184;2023-09-18T03:06:03;18.50;99.90
17529;DHT22;8882;53.192;8.184;2023-09-18T03:08:29;18.50;99.90
17529;DHT22;8882;53.192;8.184;2023-09-18T03:10:55;18.50;99.90
17529;DHT22;8882;53.192;8.184;2023-09-18T03:13:21;18.50;99.90
17529;DHT22;8882;53.192;8.184;2023-09-18T03:15:47;18.40;99.90
17529;DHT22;8882;53.192;8.184;2023-09-18T03:18:13;18.40;99.90
17529;DHT22;8882;53.192;8.184;2023-09-18T03:20:38;18.40;99.90
17529;DHT22;8882;53.192;8.184;2023-09-18T03:23:04;18.40;99.90
17529;DHT22;8882;53.192;8.184;2023-09-18T03:25:30;18.50;99.90
17529;DHT22;8882;53.192;8.184;2023-09-18T03:27:56;18.50;99.90
17529;DHT22;8882;53.192;8.184;2023-09-18T03:30:24;18.50;99.90
17529;DHT22;8882;53.192;8.184;2023-09-18T03:32:50;18.40;99.90
17529;DHT22;8882;53.192;8.184;2023-09-18T03:35:17;18.40;99.90
17529;DHT22;8882;53.192;8.184;2023-09-18T03:37:52;18.40;99.90
17529;DHT22;8882;53.192;8.184;2023-09-18T03:40:20;18.40;99.90
17529;DHT22;8882;53.192;8.184;2023-09-18T03:42:46;18.40;99.90
17529;DHT22;8882;53.192;8.184;2023-09-18T03:45:12;18.50;99.90
17529;DHT22;8882;53.192;8.184;2023-09-18T03:47:39;18.50;99.90
17529;DHT22;8882;53.192;8.184;2023-09-18T03:50:12;18.50;99.90
17529;DHT22;8882;53.192;8.184;2023-09-18T03:52:38;18.40;99.90
17529;DHT22;8882;53.192;8.184;2023-09-18T03:55:07;18.50;99.90
17529;DHT22;8882;53.192;8.184;2023-09-18T03:57:34;18.50;99.90
17529;DHT22;8882;53.192;8.184;2023-09-18T03:59:59;18.50;99.90
17529;DHT22;8882;53.192;8.184;2023-09-18T04:02:26;18.50;99.90
17529;DHT22;8882;53.192;8.184;2023-09-18T04:04:53;18.50;99.90
17529;DHT22;8882;53.192;8.184;2023-09-18T04:07:18;18.50;99.90
17529;DHT22;8882;53.192;8.184;2023-09-18T04:09:45;18.50;99.90
17529;DHT22;8882;53.192;8.184;2023-09-18T04:12:10;18.50;99.90
17529;DHT22;8882;53.192;8.184;2023-09-18T04:14:36;18.50;99.90
17529;DHT22;8882;53.192;8.184;2023-09-18T04:17:02;18.50;99.90
17529;DHT22;8882;53.192;8.184;2023-09-18T04:19:27;18.50;99.90
17529;DHT22;8882;53.192;8.184;2023-09-18T04:21:54;18.50;99.90
17529;DHT22;8882;53.192;8.184;2023-09-18T04:24:20;18.50;99.90
17529;DHT22;8882;53.192;8.184;2023-09-18T04:26:46;18.50;99.90
17529;DHT22;8882;53.192;8.184;2023-09-18T04:29:11;18.40;99.90
17529;DHT22;8882;53.192;8.184;2023-09-18T04:31:37;18.50;99.90
17529;DHT22;8882;53.192;8.184;2023-09-18T04:34:05;18.50;99.90
17529;DHT22;8882;53.192;8.184;2023-09-18T04:36:32;18.40;99.90
17529;DHT22;8882;53.192;8.184;2023-09-18T04:38:57;18.40;99.90
17529;DHT22;8882;53.192;8.184;2023-09-18T04:41:23;18.40;99.90
17529;DHT22;8882;53.192;8.184;2023-09-18T04:43:48;18.30;99.90
17529;DHT22;8882;53.192;8.184;2023-09-18T04:46:16;18.30;99.90
17529;DHT22;8882;53.192;8.184;2023-09-18T04:48:41;18.30;99.90
17529;DHT22;8882;53.192;8.184;2023-09-18T04:51:08;18.30;99.90
17529;DHT22;8882;53.192;8.184;2023-09-18T04:53:34;18.30;99.90
17529;DHT22;8882;53.192;8.184;2023-09-18T04:56:00;18.20;99.90
17529;DHT22;8882;53.192;8.184;2023-09-18T04:58:26;18.20;99.90
17529;DHT22;8882;53.192;8.184;2023-09-18T05:00:55;18.20;99.90
17529;DHT22;8882;53.192;8.184;2023-09-18T05:03:21;18.20;99.90
17529;DHT22;8882;53.192;8.184;2023-09-18T05:05:47;18.20;99.90
17529;DHT22;8882;53.192;8.184;2023-09-18T05:08:12;18.20;99.90
17529;DHT22;8882;53.192;8.184;2023-09-18T05:10:38;18.20;99.90
17529;DHT22;8882;53.192;8.184;2023-09-18T05:13:05;18.20;99.90
17529;DHT22;8882;53.192;8.184;2023-09-18T05:15:31;18.20;99.90
17529;DHT22;8882;53.192;8.184;2023-09-18T05:17:59;18.20;99.90
17529;DHT22;8882;53.192;8.184;2023-09-18T05:20:28;18.10;99.90
17529;DHT22;8882;53.192;8.184;2023-09-18T05:22:55;18.10;99.90
17529;DHT22;8882;53.192;8.184;2023-09-18T05:25:22;18.10;99.90
17529;DHT22;8882;53.192;8.184;2023-09-18T05:27:52;18.20;99.90
17529;DHT22;8882;53.192;8.184;2023-09-18T05:30:32;18.20;99.90
17529;DHT22;8882;53.192;8.184;2023-09-18T05:33:00;18.20;99.90
17529;DHT22;8882;53.192;8.184;2023-09-18T05:37:58;18.20;99.90
17529;DHT22;8882;53.192;8.184;2023-09-18T05:40:25;18.20;99.90
17529;DHT22;8882;53.192;8.184;2023-09-18T05:42:54;18.20;99.90
17529;DHT22;8882;53.192;8.184;2023-09-18T05:45:20;18.20;99.90
17529;DHT22;8882;53.192;8.184;2023-09-18T05:47:45;18.20;99.90
17529;DHT22;8882;53.192;8.184;2023-09-18T05:50:12;18.20;99.90
17529;DHT22;8882;53.192;8.184;2023-09-18T05:52:42;18.20;99.90
17529;DHT22;8882;53.192;8.184;2023-09-18T05:55:08;18.20;99.90
17529;DHT22;8882;53.192;8.184;2023-09-18T05:57:34;18.20;99.90
17529;DHT22;8882;53.192;8.184;2023-09-18T06:00:00;18.20;99.90
17529;DHT22;8882;53.192;8.184;2023-09-18T06:02:26;18.20;99.90
17529;DHT22;8882;53.192;8.184;2023-09-18T06:05:00;18.20;99.90
17529;DHT22;8882;53.192;8.184;2023-09-18T06:07:27;18.30;99.90
17529;DHT22;8882;53.192;8.184;2023-09-18T06:09:53;18.30;99.90
17529;DHT22;8882;53.192;8.184;2023-09-18T06:12:19;18.30;99.90
17529;DHT22;8882;53.192;8.184;2023-09-18T06:14:44;18.30;99.90
17529;DHT22;8882;53.192;8.184;2023-09-18T06:17:12;18.30;99.90
17529;DHT22;8882;53.192;8.184;2023-09-18T06:19:37;18.40;99.90
17529;DHT22;8882;53.192;8.184;2023-09-18T06:22:04;18.40;99.90
17529;DHT22;8882;53.192;8.184;2023-09-18T06:24:30;18.40;99.90
17529;DHT22;8882;53.192;8.184;2023-09-18T06:26:55;18.40;99.90
17529;DHT22;8882;53.192;8.184;2023-09-18T06:29:21;18.40;99.90
17529;DHT22;8882;53.192;8.184;2023-09-18T06:31:46;18.40;99.90
17529;DHT22;8882;53.192;8.184;2023-09-18T06:34:12;18.50;99.90
17529;DHT22;8882;53.192;8.184;2023-09-18T06:36:37;18.50;99.90
17529;DHT22;8882;53.192;8.184;2023-09-18T06:39:04;18.50;99.90
17529;DHT22;8882;53.192;8.184;2023-09-18T06:41:30;18.60;99.90
17529;DHT22;8882;53.192;8.184;2023-09-18T06:43:55;18.60;99.90
17529;DHT22;8882;53.192;8.184;2023-09-18T06:46:22;18.60;99.90
17529;DHT22;8882;53.192;8.184;2023-09-18T06:48:48;18.60;99.90
17529;DHT22;8882;53.192;8.184;2023-09-18T06:51:17;18.60;99.90
17529;DHT22;8882;53.192;8.184;2023-09-18T06:53:43;18.70;99.90
17529;DHT22;8882;53.192;8.184;2023-09-18T06:56:09;18.70;99.90
17529;DHT22;8882;53.192;8.184;2023-09-18T06:58:35;18.70;99.90
17529;DHT22;8882;53.192;8.184;2023-09-18T07:01:02;18.80;99.90
17529;DHT22;8882;53.192;8.184;2023-09-18T07:03:28;18.80;99.90
17529;DHT22;8882;53.192;8.184;2023-09-18T07:05:54;18.90;99.90
17529;DHT22;8882;53.192;8.184;2023-09-18T07:08:19;18.90;99.90
17529;DHT22;8882;53.192;8.184;2023-09-18T07:10:50;18.90;99.90
17529;DHT22;8882;53.192;8.184;2023-09-18T07:13:15;19.00;99.90
17529;DHT22;8882;53.192;8.184;2023-09-18T07:15:41;19.00;99.90
17529;DHT22;8882;53.192;8.184;2023-09-18T07:18:07;19.00;99.90
17529;DHT22;8882;53.192;8.184;2023-09-18T07:20:32;19.10;99.90
17529;DHT22;8882;53.192;8.184;2023-09-18T07:22:58;19.10;99.90
17529;DHT22;8882;53.192;8.184;2023-09-18T07:25:24;19.20;99.90
17529;DHT22;8882;53.192;8.184;2023-09-18T07:27:51;19.30;99.90
17529;DHT22;8882;53.192;8.184;2023-09-18T07:30:16;19.30;99.90
17529;DHT22;8882;53.192;8.184;2023-09-18T07:32:43;19.30;99.90
17529;DHT22;8882;53.192;8.184;2023-09-18T07:35:09;19.40;99.90
17529;DHT22;8882;53.192;8.184;2023-09-18T07:37:35;19.40;99.90
17529;DHT22;8882;53.192;8.184;2023-09-18T07:40:03;19.40;99.90
17529;DHT22;8882;53.192;8.184;2023-09-18T07:42:28;19.40;99.90
17529;DHT22;8882;53.192;8.184;2023-09-18T07:44:54;19.40;99.90
17529;DHT22;8882;53.192;8.184;2023-09-18T07:47:20;19.40;99.90
17529;DHT22;8882;53.192;8.184;2023-09-18T07:49:46;19.50;99.90
17529;DHT22;8882;53.192;8.184;2023-09-18T07:52:12;19.50;99.90
17529;DHT22;8882;53.192;8.184;2023-09-18T07:54:37;19.50;99.90
17529;DHT22;8882;53.192;8.184;2023-09-18T07:57:04;19.50;99.90
17529;DHT22;8882;53.192;8.184;2023-09-18T07:59:33;19.50;99.90
17529;DHT22;8882;53.192;8.184;2023-09-18T08:01:58;19.50;99.90
17529;DHT22;8882;53.192;8.184;2023-09-18T08:04:25;19.50;99.90
17529;DHT22;8882;53.192;8.184;2023-09-18T08:06:50;19.50;99.90
17529;DHT22;8882;53.192;8.184;2023-09-18T08:09:16;19.50;99.90
17529;DHT22;8882;53.192;8.184;2023-09-18T08:11:42;19.50;99.90
17529;DHT22;8882;53.192;8.184;2023-09-18T08:14:11;19.60;99.90
17529;DHT22;8882;53.192;8.184;2023-09-18T08:16:38;19.60;99.90
17529;DHT22;8882;53.192;8.184;2023-09-18T08:19:04;19.60;99.90
17529;DHT22;8882;53.192;8.184;2023-09-18T08:21:29;19.60;99.90
17529;DHT22;8882;53.192;8.184;2023-09-18T08:23:55;19.70;99.90
17529;DHT22;8882;53.192;8.184;2023-09-18T08:26:22;19.70;99.90
17529;DHT22;8882;53.192;8.184;2023-09-18T08:28:48;19.70;99.90
17529;DHT22;8882;53.192;8.184;2023-09-18T08:31:14;19.70;99.90
17529;DHT22;8882;53.192;8.184;2023-09-18T08:33:42;19.60;99.90
17529;DHT22;8882;53.192;8.184;2023-09-18T08:36:08;19.50;99.90
17529;DHT22;8882;53.192;8.184;2023-09-18T08:38:34;19.40;99.90
17529;DHT22;8882;53.192;8.184;2023-09-18T08:41:00;19.40;99.90
17529;DHT22;8882;53.192;8.184;2023-09-18T08:43:26;19.30;99.90
17529;DHT22;8882;53.192;8.184;2023-09-18T08:45:53;19.30;99.90
17529;DHT22;8882;53.192;8.184;2023-09-18T08:48:20;19.30;99.90
17529;DHT22;8882;53.192;8.184;2023-09-18T08:50:45;19.30;99.90
17529;DHT22;8882;53.192;8.184;2023-09-18T08:53:12;19.30;99.90
17529;DHT22;8882;53.192;8.184;2023-09-18T08:55:40;19.30;99.90
17529;DHT22;8882;53.192;8.184;2023-09-18T08:58:07;19.30;99.90
17529;DHT22;8882;53.192;8.184;2023-09-18T09:00:39;19.30;99.90
17529;DHT22;8882;53.192;8.184;2023-09-18T09:03:04;19.30;99.90
17529;DHT22;8882;53.192;8.184;2023-09-18T09:05:30;19.40;99.90
17529;DHT22;8882;53.192;8.184;2023-09-18T09:07:56;19.40;99.90
17529;DHT22;8882;53.192;8.184;2023-09-18T09:10:22;19.50;99.90
17529;DHT22;8882;53.192;8.184;2023-09-18T09:12:56;19.50;99.90
17529;DHT22;8882;53.192;8.184;2023-09-18T09:15:25;19.50;99.90
17529;DHT22;8882;53.192;8.184;2023-09-18T09:17:52;19.70;99.90
17529;DHT22;8882;53.192;8.184;2023-09-18T09:20:26;19.80;99.90
17529;DHT22;8882;53.192;8.184;2023-09-18T09:22:51;19.90;99.90
17529;DHT22;8882;53.192;8.184;2023-09-18T09:25:23;20.00;99.90
17529;DHT22;8882;53.192;8.184;2023-09-18T09:27:52;20.10;99.90
17529;DHT22;8882;53.192;8.184;2023-09-18T09:30:25;20.10;99.90
17529;DHT22;8882;53.192;8.184;2023-09-18T09:32:52;20.10;99.90
17529;DHT22;8882;53.192;8.184;2023-09-18T09:35:20;20.20;99.90
17529;DHT22;8882;53.192;8.184;2023-09-18T09:37:45;20.20;99.90
17529;DHT22;8882;53.192;8.184;2023-09-18T09:40:12;20.10;99.90
17529;DHT22;8882;53.192;8.184;2023-09-18T09:42:41;20.20;99.90
17529;DHT22;8882;53.192;8.184;2023-09-18T09:45:14;20.10;99.90
17529;DHT22;8882;53.192;8.184;2023-09-18T09:47:44;20.10;99.90
17529;DHT22;8882;53.192;8.184;2023-09-18T09:50:14;20.10;99.90
17529;DHT22;8882;53.192;8.184;2023-09-18T09:52:46;20.10;99.90
17529;DHT22;8882;53.192;8.184;2023-09-18T09:55:33;20.10;99.90
17529;DHT22;8882;53.192;8.184;2023-09-18T09:58:05;20.10;99.90
17529;DHT22;8882;53.192;8.184;2023-09-18T10:00:32;20.20;99.90
17529;DHT22;8882;53.192;8.184;2023-09-18T10:03:04;20.20;99.90
17529;DHT22;8882;53.192;8.184;2023-09-18T10:05:35;20.10;99.90
17529;DHT22;8882;53.192;8.184;2023-09-18T10:08:07;20.20;99.90
17529;DHT22;8882;53.192;8.184;2023-09-18T10:10:38;20.20;99.90
17529;DHT22;8882;53.192;8.184;2023-09-18T10:13:15;20.30;99.90
17529;DHT22;8882;53.192;8.184;2023-09-18T10:15:42;20.30;99.90
17529;DHT22;8882;53.192;8.184;2023-09-18T10:18:28;20.30;99.90
17529;DHT22;8882;53.192;8.184;2023-09-18T10:21:06;20.30;99.90
17529;DHT22;8882;53.192;8.184;2023-09-18T10:26:10;20.30;99.90
17529;DHT22;8882;53.192;8.184;2023-09-18T10:28:43;20.30;99.90
17529;DHT22;8882;53.192;8.184;2023-09-18T10:31:09;20.30;99.90
17529;DHT22;8882;53.192;8.184;2023-09-18T10:33:37;20.30;99.90
17529;DHT22;8882;53.192;8.184;2023-09-18T10:36:04;20.30;99.90
17529;DHT22;8882;53.192;8.184;2023-09-18T10:38:32;20.30;99.90
17529;DHT22;8882;53.192;8.184;2023-09-18T10:40:58;20.30;99.90
17529;DHT22;8882;53.192;8.184;2023-09-18T10:43:24;20.30;99.90
17529;DHT22;8882;53.192;8.184;2023-09-18T10:45:52;20.40;99.90
17529;DHT22;8882;53.192;8.184;2023-09-18T10:48:19;20.40;99.90
17529;DHT22;8882;53.192;8.184;2023-09-18T10:50:45;20.40;99.90
17529;DHT22;8882;53.192;8.184;2023-09-18T10:53:12;20.50;99.90
17529;DHT22;8882;53.192;8.184;2023-09-18T10:55:38;20.60;99.90
17529;DHT22;8882;53.192;8.184;2023-09-18T10:58:04;20.70;99.90
17529;DHT22;8882;53.192;8.184;2023-09-18T11:00:31;20.80;99.90
17529;DHT22;8882;53.192;8.184;2023-09-18T11:03:16;20.90;99.90
17529;DHT22;8882;53.192;8.184;2023-09-18T11:05:46;20.90;99.90
17529;DHT22;8882;53.192;8.184;2023-09-18T11:08:29;20.90;99.90
17529;DHT22;8882;53.192;8.184;2023-09-18T11:11:00;20.90;99.90
17529;DHT22;8882;53.192;8.184;2023-09-18T11:13:31;20.90;99.90
17529;DHT22;8882;53.192;8.184;2023-09-18T11:16:13;21.00;99.90
17529;DHT22;8882;53.192;8.184;2023-09-18T11:18:38;21.00;99.90
17529;DHT22;8882;53.192;8.184;2023-09-18T11:21:12;21.00;99.90
17529;DHT22;8882;53.192;8.184;2023-09-18T11:23:40;21.00;99.90
17529;DHT22;8882;53.192;8.184;2023-09-18T11:26:09;21.00;99.90
17529;DHT22;8882;53.192;8.184;2023-09-18T11:28:36;21.00;99.90
17529;DHT22;8882;53.192;8.184;2023-09-18T11:31:06;21.00;99.90
17529;DHT22;8882;53.192;8.184;2023-09-18T11:33:38;21.00;99.90
17529;DHT22;8882;53.192;8.184;2023-09-18T11:36:08;21.10;99.90
17529;DHT22;8882;53.192;8.184;2023-09-18T11:38:57;21.10;99.90
17529;DHT22;8882;53.192;8.184;2023-09-18T11:41:35;21.20;99.90
17529;DHT22;8882;53.192;8.184;2023-09-18T11:46:41;21.20;99.90
17529;DHT22;8882;53.192;8.184;2023-09-18T11:49:11;21.30;99.90
17529;DHT22;8882;53.192;8.184;2023-09-18T11:51:37;21.30;99.90
17529;DHT22;8882;53.192;8.184;2023-09-18T11:54:05;21.30;99.90
17529;DHT22;8882;53.192;8.184;2023-09-18T11:56:33;21.40;99.90
17529;DHT22;8882;53.192;8.184;2023-09-18T11:59:00;21.40;99.90
17529;DHT22;8882;53.192;8.184;2023-09-18T12:01:30;21.50;99.90
17529;DHT22;8882;53.192;8.184;2023-09-18T12:04:03;21.50;99.90
17529;DHT22;8882;53.192;8.184;2023-09-18T12:06:35;21.60;99.90
17529;DHT22;8882;53.192;8.184;2023-09-18T12:09:02;21.70;99.90
17529;DHT22;8882;53.192;8.184;2023-09-18T12:11:29;21.80;99.90
17529;DHT22;8882;53.192;8.184;2023-09-18T12:13:54;22.10;99.90
17529;DHT22;8882;53.192;8.184;2023-09-18T12:16:21;22.20;99.90
17529;DHT22;8882;53.192;8.184;2023-09-18T12:18:48;22.20;99.90
17529;DHT22;8882;53.192;8.184;2023-09-18T12:21:15;22.30;99.90
17529;DHT22;8882;53.192;8.184;2023-09-18T12:23:43;22.40;99.90
17529;DHT22;8882;53.192;8.184;2023-09-18T12:26:11;22.50;99.90
17529;DHT22;8882;53.192;8.184;2023-09-18T12:28:39;22.50;99.90
17529;DHT22;8882;53.192;8.184;2023-09-18T12:31:04;22.60;99.90
17529;DHT22;8882;53.192;8.184;2023-09-18T12:33:34;22.60;99.90
17529;DHT22;8882;53.192;8.184;2023-09-18T12:36:01;22.60;99.90
17529;DHT22;8882;53.192;8.184;2023-09-18T12:38:26;22.70;99.90
17529;DHT22;8882;53.192;8.184;2023-09-18T12:40:53;22.70;99.90
17529;DHT22;8882;53.192;8.184;2023-09-18T12:43:20;22.70;99.90
17529;DHT22;8882;53.192;8.184;2023-09-18T12:45:48;22.70;99.90
17529;DHT22;8882;53.192;8.184;2023-09-18T12:48:15;22.70;99.90
17529;DHT22;8882;53.192;8.184;2023-09-18T12:50:42;22.70;99.90
17529;DHT22;8882;53.192;8.184;2023-09-18T12:53:12;22.80;99.70
17529;DHT22;8882;53.192;8.184;2023-09-18T12:55:38;22.80;99.90
17529;DHT22;8882;53.192;8.184;2023-09-18T12:58:04;23.00;91.50
17529;DHT22;8882;53.192;8.184;2023-09-18T13:00:34;23.10;81.60
17529;DHT22;8882;53.192;8.184;2023-09-18T13:03:00;23.10;70.30
17529;DHT22;8882;53.192;8.184;2023-09-18T13:05:26;23.00;51.20
17529;DHT22;8882;53.192;8.184;2023-09-18T13:07:53;23.00;32.80
17529;DHT22;8882;53.192;8.184;2023-09-18T13:10:21;23.10;93.50
17529;DHT22;8882;53.192;8.184;2023-09-18T13:12:52;23.20;97.30
17529;DHT22;8882;53.192;8.184;2023-09-18T13:15:27;23.40;2.30
17529;DHT22;8882;53.192;8.184;2023-09-18T13:17:54;23.50;14.90
17529;DHT22;8882;53.192;8.184;2023-09-18T13:20:25;23.40;1.00
17529;DHT22;8882;53.192;8.184;2023-09-18T13:22:57;23.40;1.00
17529;DHT22;8882;53.192;8.184;2023-09-18T13:25:26;23.40;1.00
17529;DHT22;8882;53.192;8.184;2023-09-18T13:27:54;23.20;13.10
17529;DHT22;8882;53.192;8.184;2023-09-18T13:30:21;23.10;13.60
17529;DHT22;8882;53.192;8.184;2023-09-18T13:32:49;23.20;45.20
17529;DHT22;8882;53.192;8.184;2023-09-18T13:35:16;23.20;12.80
17529;DHT22;8882;53.192;8.184;2023-09-18T13:37:43;23.20;1.00
17529;DHT22;8882;53.192;8.184;2023-09-18T13:40:11;23.10;1.00
17529;DHT22;8882;53.192;8.184;2023-09-18T13:42:39;23.20;14.90
17529;DHT22;8882;53.192;8.184;2023-09-18T13:45:08;23.20;1.00
17529;DHT22;8882;53.192;8.184;2023-09-18T13:47:35;23.30;1.00
17529;DHT22;8882;53.192;8.184;2023-09-18T13:50:02;23.40;1.00
17529;DHT22;8882;53.192;8.184;2023-09-18T13:52:31;23.50;99.90
17529;DHT22;8882;53.192;8.184;2023-09-18T13:54:56;23.50;99.90
17529;DHT22;8882;53.192;8.184;2023-09-18T13:57:23;23.50;99.90
17529;DHT22;8882;53.192;8.184;2023-09-18T13:59:51;23.40;99.90
17529;DHT22;8882;53.192;8.184;2023-09-18T14:04:47;23.00;99.90
17529;DHT22;8882;53.192;8.184;2023-09-18T14:07:14;22.90;47.80
17529;DHT22;8882;53.192;8.184;2023-09-18T14:09:39;22.80;33.30
17529;DHT22;8882;53.192;8.184;2023-09-18T14:12:05;22.80;19.10
17529;DHT22;8882;53.192;8.184;2023-09-18T14:14:34;22.70;31.00
17529;DHT22;8882;53.192;8.184;2023-09-18T14:17:01;22.70;36.90
17529;DHT22;8882;53.192;8.184;2023-09-18T14:19:26;22.60;45.10
17529;DHT22;8882;53.192;8.184;2023-09-18T14:21:52;22.60;64.80
17529;DHT22;8882;53.192;8.184;2023-09-18T14:24:18;22.60;45.40
17529;DHT22;8882;53.192;8.184;2023-09-18T14:26:48;22.50;53.10
17529;DHT22;8882;53.192;8.184;2023-09-18T14:29:14;22.50;51.50
17529;DHT22;8882;53.192;8.184;2023-09-18T14:31:40;22.50;68.50
17529;DHT22;8882;53.192;8.184;2023-09-18T14:34:06;22.50;48.30
17529;DHT22;8882;53.192;8.184;2023-09-18T14:36:34;22.50;51.80
17529;DHT22;8882;53.192;8.184;2023-09-18T14:39:00;22.50;52.00
17529;DHT22;8882;53.192;8.184;2023-09-18T14:41:27;22.50;62.00
17529;DHT22;8882;53.192;8.184;2023-09-18T14:43:53;22.50;65.30
17529;DHT22;8882;53.192;8.184;2023-09-18T14:46:19;22.50;68.10
17529;DHT22;8882;53.192;8.184;2023-09-18T14:48:46;22.50;87.40
17529;DHT22;8882;53.192;8.184;2023-09-18T14:51:12;22.60;80.70
17529;DHT22;8882;53.192;8.184;2023-09-18T14:53:37;22.70;93.40
17529;DHT22;8882;53.192;8.184;2023-09-18T14:56:03;22.80;98.10
17529;DHT22;8882;53.192;8.184;2023-09-18T14:58:29;22.80;93.20
17529;DHT22;8882;53.192;8.184;2023-09-18T15:00:56;22.80;63.50
17529;DHT22;8882;53.192;8.184;2023-09-18T15:03:22;22.80;59.40
17529;DHT22;8882;53.192;8.184;2023-09-18T15:05:51;22.70;72.30
17529;DHT22;8882;53.192;8.184;2023-09-18T15:08:19;22.70;69.30
17529;DHT22;8882;53.192;8.184;2023-09-18T15:13:14;22.50;57.40
17529;DHT22;8882;53.192;8.184;2023-09-18T15:15:40;22.50;60.10
17529;DHT22;8882;53.192;8.184;2023-09-18T15:18:08;22.40;75.80
17529;DHT22;8882;53.192;8.184;2023-09-18T15:20:34;22.40;77.70
17529;DHT22;8882;53.192;8.184;2023-09-18T15:22:59;22.30;99.90
17529;DHT22;8882;53.192;8.184;2023-09-18T15:25:25;22.30;99.90
17529;DHT22;8882;53.192;8.184;2023-09-18T15:27:50;22.20;99.90
17529;DHT22;8882;53.192;8.184;2023-09-18T15:32:52;21.90;98.00
17529;DHT22;8882;53.192;8.184;2023-09-18T15:35:22;21.90;70.00
17529;DHT22;8882;53.192;8.184;2023-09-18T15:37:48;21.90;67.50
17529;DHT22;8882;53.192;8.184;2023-09-18T15:40:14;21.80;66.90
17529;DHT22;8882;53.192;8.184;2023-09-18T15:42:42;21.90;63.80
17529;DHT22;8882;53.192;8.184;2023-09-18T15:45:08;21.90;68.40
17529;DHT22;8882;53.192;8.184;2023-09-18T15:47:39;21.90;85.60
17529;DHT22;8882;53.192;8.184;2023-09-18T15:50:08;21.80;63.20
17529;DHT22;8882;53.192;8.184;2023-09-18T15:52:35;21.80;41.60
17529;DHT22;8882;53.192;8.184;2023-09-18T15:55:02;21.70;72.60
17529;DHT22;8882;53.192;8.184;2023-09-18T15:57:31;21.60;99.40
17529;DHT22;8882;53.192;8.184;2023-09-18T15:59:57;21.60;99.90
17529;DHT22;8882;53.192;8.184;2023-09-18T16:02:26;21.50;99.90
17529;DHT22;8882;53.192;8.184;2023-09-18T16:04:52;21.50;99.90